sensor_id;sensor_type;location;lat;lon;timestamp;P1;durP1;ratioP1;P2;durP2;ratioP2
5965;SDS011;3009;43.224;27.976;2022-11-15T00:01:14;11.50;;;6.80;;
5965;SDS011;3009;43.224;27.976;2022-11-15T00:03:45;12.87;;;7.13;;
5965;SDS011;3009;43.224;27.976;2022-11-15T00:06:15;11.47;;;7.43;;
5965;SDS011;3009;43.224;27.976;2022-11-15T00:08:43;11.10;;;6.80;;
5965;SDS011;3009;43.224;27.976;2022-11-15T00:11:11;10.67;;;7.20;;
5965;SDS011;3009;43.224;27.976;2022-11-15T00:13:40;8.07;;;5.97;;
5965;SDS011;3009;43.224;27.976;2022-11-15T00:16:11;9.90;;;6.40;;
5965;SDS011;3009;43.224;27.976;2022-11-15T00:18:40;9.20;;;7.07;;
5965;SDS011;3009;43.224;27.976;2022-11-15T00:21:17;9.80;;;6.70;;
5965;SDS011;3009;43.224;27.976;2022-11-15T00:23:46;9.57;;;6.60;;
5965;SDS011;3009;43.224;27.976;2022-11-15T00:26:14;7.87;;;5.90;;
5965;SDS011;3009;43.224;27.976;2022-11-15T00:28:42;12.20;;;5.70;;
5965;SDS011;3009;43.224;27.976;2022-11-15T00:31:11;9.10;;;6.20;;
5965;SDS011;3009;43.224;27.976;2022-11-15T00:33:42;7.23;;;5.40;;
5965;SDS011;3009;43.224;27.976;2022-11-15T00:36:11;9.10;;;5.77;;
5965;SDS011;3009;43.224;27.976;2022-11-15T00:38:41;8.17;;;5.80;;
5965;SDS011;3009;43.224;27.976;2022-11-15T00:41:09;8.90;;;5.97;;
5965;SDS011;3009;43.224;27.976;2022-11-15T00:43:37;7.17;;;5.37;;
5965;SDS011;3009;43.224;27.976;2022-11-15T00:46:06;9.90;;;6.23;;
5965;SDS011;3009;43.224;27.976;2022-11-15T00:48:36;8.77;;;5.07;;
5965;SDS011;3009;43.224;27.976;2022-11-15T00:51:04;8.13;;;5.40;;
5965;SDS011;3009;43.224;27.976;2022-11-15T00:53:32;7.07;;;5.10;;
5965;SDS011;3009;43.224;27.976;2022-11-15T00:56:02;6.50;;;4.50;;
5965;SDS011;3009;43.224;27.976;2022-11-15T00:58:30;9.00;;;5.93;;
5965;SDS011;3009;43.224;27.976;2022-11-15T01:01:05;9.27;;;5.30;;
5965;SDS011;3009;43.224;27.976;2022-11-15T01:03:37;8.43;;;5.23;;
5965;SDS011;3009;43.224;27.976;2022-11-15T01:06:06;8.23;;;5.43;;
5965;SDS011;3009;43.224;27.976;2022-11-15T01:08:35;7.40;;;5.03;;
5965;SDS011;3009;43.224;27.976;2022-11-15T01:11:06;7.30;;;4.70;;
5965;SDS011;3009;43.224;27.976;2022-11-15T01:13:35;8.50;;;4.80;;
5965;SDS011;3009;43.224;27.976;2022-11-15T01:16:07;5.33;;;4.63;;
5965;SDS011;3009;43.224;27.976;2022-11-15T01:18:36;5.43;;;4.77;;
5965;SDS011;3009;43.224;27.976;2022-11-15T01:21:05;7.10;;;5.00;;
5965;SDS011;3009;43.224;27.976;2022-11-15T01:23:34;6.57;;;4.57;;
5965;SDS011;3009;43.224;27.976;2022-11-15T01:26:03;6.50;;;5.17;;
5965;SDS011;3009;43.224;27.976;2022-11-15T01:28:34;5.20;;;4.20;;
5965;SDS011;3009;43.224;27.976;2022-11-15T01:31:04;6.37;;;5.10;;
5965;SDS011;3009;43.224;27.976;2022-11-15T01:33:34;5.47;;;4.63;;
5965;SDS011;3009;43.224;27.976;2022-11-15T01:36:03;5.67;;;4.50;;
5965;SDS011;3009;43.224;27.976;2022-11-15T01:38:32;5.00;;;4.10;;
5965;SDS011;3009;43.224;27.976;2022-11-15T01:41:00;7.70;;;5.40;;
5965;SDS011;3009;43.224;27.976;2022-11-15T01:43:31;7.67;;;5.17;;
5965;SDS011;3009;43.224;27.976;2022-11-15T01:46:02;5.70;;;4.03;;
5965;SDS011;3009;43.224;27.976;2022-11-15T01:48:34;9.20;;;5.47;;
5965;SDS011;3009;43.224;27.976;2022-11-15T01:51:05;6.83;;;4.63;;
5965;SDS011;3009;43.224;27.976;2022-11-15T01:53:36;6.30;;;4.87;;
5965;SDS011;3009;43.224;27.976;2022-11-15T01:56:08;6.00;;;4.90;;
5965;SDS011;3009;43.224;27.976;2022-11-15T01:58:42;8.80;;;6.07;;
5965;SDS011;3009;43.224;27.976;2022-11-15T02:01:12;7.17;;;5.17;;
5965;SDS011;3009;43.224;27.976;2022-11-15T02:03:43;5.47;;;4.40;;
5965;SDS011;3009;43.224;27.976;2022-11-15T02:06:16;6.93;;;5.50;;
5965;SDS011;3009;43.224;27.976;2022-11-15T02:08:45;6.67;;;5.10;;
5965;SDS011;3009;43.224;27.976;2022-11-15T02:11:14;5.43;;;4.80;;
5965;SDS011;3009;43.224;27.976;2022-11-15T02:13:44;6.67;;;5.23;;
5965;SDS011;3009;43.224;27.976;2022-11-15T02:16:13;7.57;;;5.13;;
5965;SDS011;3009;43.224;27.976;2022-11-15T02:18:52;6.20;;;4.67;;
5965;SDS011;3009;43.224;27.976;2022-11-15T02:21:26;7.10;;;5.00;;
5965;SDS011;3009;43.224;27.976;2022-11-15T02:24:09;8.30;;;5.53;;
5965;SDS011;3009;43.224;27.976;2022-11-15T02:26:57;5.40;;;4.03;;
5965;SDS011;3009;43.224;27.976;2022-11-15T02:29:59;7.50;;;4.63;;
5965;SDS011;3009;43.224;27.976;2022-11-15T02:32:36;6.03;;;5.17;;
5965;SDS011;3009;43.224;27.976;2022-11-15T02:35:13;7.80;;;5.40;;
5965;SDS011;3009;43.224;27.976;2022-11-15T02:37:51;6.60;;;4.43;;
5965;SDS011;3009;43.224;27.976;2022-11-15T02:40:26;7.30;;;5.20;;
5965;SDS011;3009;43.224;27.976;2022-11-15T02:43:03;5.47;;;4.60;;
5965;SDS011;3009;43.224;27.976;2022-11-15T02:45:53;5.67;;;4.40;;
5965;SDS011;3009;43.224;27.976;2022-11-15T02:48:28;5.53;;;4.80;;
5965;SDS011;3009;43.224;27.976;2022-11-15T02:50:57;4.97;;;4.47;;
5965;SDS011;3009;43.224;27.976;2022-11-15T02:53:27;7.60;;;5.30;;
5965;SDS011;3009;43.224;27.976;2022-11-15T02:55:56;6.90;;;5.30;;
5965;SDS011;3009;43.224;27.976;2022-11-15T03:01:28;7.50;;;5.70;;
5965;SDS011;3009;43.224;27.976;2022-11-15T03:04:10;6.47;;;4.77;;
5965;SDS011;3009;43.224;27.976;2022-11-15T03:06:48;6.30;;;4.87;;
5965;SDS011;3009;43.224;27.976;2022-11-15T03:09:23;6.57;;;5.33;;
5965;SDS011;3009;43.224;27.976;2022-11-15T03:11:58;9.47;;;5.23;;
5965;SDS011;3009;43.224;27.976;2022-11-15T03:14:32;8.27;;;5.03;;
5965;SDS011;3009;43.224;27.976;2022-11-15T03:17:06;14.83;;;5.43;;
5965;SDS011;3009;43.224;27.976;2022-11-15T03:19:46;4.27;;;3.80;;
5965;SDS011;3009;43.224;27.976;2022-11-15T03:22:16;6.93;;;5.70;;
5965;SDS011;3009;43.224;27.976;2022-11-15T03:24:46;5.77;;;5.00;;
5965;SDS011;3009;43.224;27.976;2022-11-15T03:27:20;5.83;;;4.80;;
5965;SDS011;3009;43.224;27.976;2022-11-15T03:29:51;6.57;;;5.00;;
5965;SDS011;3009;43.224;27.976;2022-11-15T03:32:25;8.43;;;5.80;;
5965;SDS011;3009;43.224;27.976;2022-11-15T03:34:58;6.97;;;5.63;;
5965;SDS011;3009;43.224;27.976;2022-11-15T03:37:30;7.23;;;5.00;;
5965;SDS011;3009;43.224;27.976;2022-11-15T03:40:03;5.80;;;5.10;;
5965;SDS011;3009;43.224;27.976;2022-11-15T03:42:34;8.03;;;4.80;;
5965;SDS011;3009;43.224;27.976;2022-11-15T03:45:12;5.83;;;5.00;;
5965;SDS011;3009;43.224;27.976;2022-11-15T03:47:45;8.10;;;5.80;;
5965;SDS011;3009;43.224;27.976;2022-11-15T03:50:19;7.60;;;6.30;;
5965;SDS011;3009;43.224;27.976;2022-11-15T03:52:49;6.83;;;5.80;;
5965;SDS011;3009;43.224;27.976;2022-11-15T03:55:18;8.67;;;5.60;;
5965;SDS011;3009;43.224;27.976;2022-11-15T03:57:51;7.93;;;5.70;;
5965;SDS011;3009;43.224;27.976;2022-11-15T04:00:22;7.17;;;5.73;;
5965;SDS011;3009;43.224;27.976;2022-11-15T04:02:50;8.60;;;6.40;;
5965;SDS011;3009;43.224;27.976;2022-11-15T04:05:19;6.87;;;5.50;;
5965;SDS011;3009;43.224;27.976;2022-11-15T04:07:48;8.80;;;6.37;;
5965;SDS011;3009;43.224;27.976;2022-11-15T04:10:16;7.17;;;5.63;;
5965;SDS011;3009;43.224;27.976;2022-11-15T04:12:44;7.63;;;4.87;;
5965;SDS011;3009;43.224;27.976;2022-11-15T04:15:14;9.60;;;6.33;;
5965;SDS011;3009;43.224;27.976;2022-11-15T04:17:45;7.87;;;5.30;;
5965;SDS011;3009;43.224;27.976;2022-11-15T04:20:15;6.50;;;5.00;;
5965;SDS011;3009;43.224;27.976;2022-11-15T04:23:04;6.67;;;5.40;;
5965;SDS011;3009;43.224;27.976;2022-11-15T04:25:52;7.13;;;5.00;;
5965;SDS011;3009;43.224;27.976;2022-11-15T04:28:21;7.17;;;4.63;;
5965;SDS011;3009;43.224;27.976;2022-11-15T04:30:50;7.20;;;5.60;;
5965;SDS011;3009;43.224;27.976;2022-11-15T04:33:18;7.67;;;5.50;;
5965;SDS011;3009;43.224;27.976;2022-11-15T04:35:46;6.50;;;5.20;;
5965;SDS011;3009;43.224;27.976;2022-11-15T04:38:36;7.50;;;5.60;;
5965;SDS011;3009;43.224;27.976;2022-11-15T04:41:03;8.43;;;5.20;;
5965;SDS011;3009;43.224;27.976;2022-11-15T04:43:31;8.63;;;5.30;;
5965;SDS011;3009;43.224;27.976;2022-11-15T04:46:00;6.90;;;4.73;;
5965;SDS011;3009;43.224;27.976;2022-11-15T04:48:28;13.00;;;7.20;;
5965;SDS011;3009;43.224;27.976;2022-11-15T04:50:56;12.63;;;6.03;;
5965;SDS011;3009;43.224;27.976;2022-11-15T04:53:24;6.70;;;5.07;;
5965;SDS011;3009;43.224;27.976;2022-11-15T04:55:54;7.50;;;5.20;;
5965;SDS011;3009;43.224;27.976;2022-11-15T04:58:22;7.17;;;5.40;;
5965;SDS011;3009;43.224;27.976;2022-11-15T05:00:50;10.40;;;5.97;;
5965;SDS011;3009;43.224;27.976;2022-11-15T05:03:18;7.50;;;5.53;;
5965;SDS011;3009;43.224;27.976;2022-11-15T05:06:04;8.17;;;5.10;;
5965;SDS011;3009;43.224;27.976;2022-11-15T05:08:33;7.10;;;4.97;;
5965;SDS011;3009;43.224;27.976;2022-11-15T05:11:02;7.67;;;5.80;;
5965;SDS011;3009;43.224;27.976;2022-11-15T05:13:30;8.10;;;5.27;;
5965;SDS011;3009;43.224;27.976;2022-11-15T05:15:59;6.80;;;4.20;;
5965;SDS011;3009;43.224;27.976;2022-11-15T05:18:27;7.30;;;5.10;;
5965;SDS011;3009;43.224;27.976;2022-11-15T05:20:55;7.73;;;5.43;;
5965;SDS011;3009;43.224;27.976;2022-11-15T05:23:23;10.30;;;5.90;;
5965;SDS011;3009;43.224;27.976;2022-11-15T05:25:51;9.50;;;7.07;;
5965;SDS011;3009;43.224;27.976;2022-11-15T05:28:21;7.93;;;5.17;;
5965;SDS011;3009;43.224;27.976;2022-11-15T05:30:49;8.13;;;5.40;;
5965;SDS011;3009;43.224;27.976;2022-11-15T05:33:17;10.33;;;6.03;;
5965;SDS011;3009;43.224;27.976;2022-11-15T05:35:46;8.47;;;5.13;;
5965;SDS011;3009;43.224;27.976;2022-11-15T05:38:22;7.83;;;4.47;;
5965;SDS011;3009;43.224;27.976;2022-11-15T05:40:51;10.60;;;5.93;;
5965;SDS011;3009;43.224;27.976;2022-11-15T05:43:21;9.20;;;5.60;;
5965;SDS011;3009;43.224;27.976;2022-11-15T05:45:49;13.17;;;6.37;;
5965;SDS011;3009;43.224;27.976;2022-11-15T05:48:18;7.87;;;5.47;;
5965;SDS011;3009;43.224;27.976;2022-11-15T05:50:47;8.70;;;5.17;;
5965;SDS011;3009;43.224;27.976;2022-11-15T05:53:16;7.10;;;5.07;;
5965;SDS011;3009;43.224;27.976;2022-11-15T05:55:47;8.27;;;5.60;;
5965;SDS011;3009;43.224;27.976;2022-11-15T05:58:15;7.47;;;5.23;;
5965;SDS011;3009;43.224;27.976;2022-11-15T06:00:45;7.47;;;4.90;;
5965;SDS011;3009;43.224;27.976;2022-11-15T06:03:14;7.53;;;5.60;;
5965;SDS011;3009;43.224;27.976;2022-11-15T06:05:42;9.60;;;6.70;;
5965;SDS011;3009;43.224;27.976;2022-11-15T06:08:10;13.80;;;7.10;;
5965;SDS011;3009;43.224;27.976;2022-11-15T06:10:38;9.30;;;6.90;;
5965;SDS011;3009;43.224;27.976;2022-11-15T06:13:06;10.93;;;7.33;;
5965;SDS011;3009;43.224;27.976;2022-11-15T06:15:34;12.93;;;6.97;;
5965;SDS011;3009;43.224;27.976;2022-11-15T06:18:04;9.30;;;5.73;;
5965;SDS011;3009;43.224;27.976;2022-11-15T06:20:32;10.00;;;6.40;;
5965;SDS011;3009;43.224;27.976;2022-11-15T06:23:01;8.90;;;6.30;;
5965;SDS011;3009;43.224;27.976;2022-11-15T06:25:30;7.57;;;5.80;;
5965;SDS011;3009;43.224;27.976;2022-11-15T06:27:59;7.50;;;6.37;;
5965;SDS011;3009;43.224;27.976;2022-11-15T06:30:27;9.90;;;5.93;;
5965;SDS011;3009;43.224;27.976;2022-11-15T06:32:58;8.43;;;5.67;;
5965;SDS011;3009;43.224;27.976;2022-11-15T06:35:29;8.03;;;5.50;;
5965;SDS011;3009;43.224;27.976;2022-11-15T06:38:01;9.20;;;6.20;;
5965;SDS011;3009;43.224;27.976;2022-11-15T06:40:32;6.60;;;5.63;;
5965;SDS011;3009;43.224;27.976;2022-11-15T06:43:01;12.87;;;5.97;;
5965;SDS011;3009;43.224;27.976;2022-11-15T06:45:29;8.10;;;5.23;;
5965;SDS011;3009;43.224;27.976;2022-11-15T06:47:58;8.97;;;5.80;;
5965;SDS011;3009;43.224;27.976;2022-11-15T06:50:26;7.73;;;5.70;;
5965;SDS011;3009;43.224;27.976;2022-11-15T06:52:56;10.60;;;6.33;;
5965;SDS011;3009;43.224;27.976;2022-11-15T06:55:28;5.97;;;5.33;;
5965;SDS011;3009;43.224;27.976;2022-11-15T06:57:57;11.43;;;5.57;;
5965;SDS011;3009;43.224;27.976;2022-11-15T07:00:25;8.17;;;5.33;;
5965;SDS011;3009;43.224;27.976;2022-11-15T07:02:53;7.00;;;5.30;;
5965;SDS011;3009;43.224;27.976;2022-11-15T07:05:21;7.37;;;5.10;;
5965;SDS011;3009;43.224;27.976;2022-11-15T07:07:52;9.37;;;6.40;;
5965;SDS011;3009;43.224;27.976;2022-11-15T07:10:22;7.77;;;5.30;;
5965;SDS011;3009;43.224;27.976;2022-11-15T07:12:51;6.97;;;4.63;;
5965;SDS011;3009;43.224;27.976;2022-11-15T07:15:20;12.90;;;5.37;;
5965;SDS011;3009;43.224;27.976;2022-11-15T07:17:49;7.17;;;5.00;;
5965;SDS011;3009;43.224;27.976;2022-11-15T07:20:18;8.30;;;6.10;;
5965;SDS011;3009;43.224;27.976;2022-11-15T07:22:46;8.57;;;5.57;;
5965;SDS011;3009;43.224;27.976;2022-11-15T07:25:14;8.10;;;5.47;;
5965;SDS011;3009;43.224;27.976;2022-11-15T07:27:44;10.60;;;5.07;;
5965;SDS011;3009;43.224;27.976;2022-11-15T07:30:22;8.47;;;5.23;;
5965;SDS011;3009;43.224;27.976;2022-11-15T07:32:52;10.77;;;6.47;;
5965;SDS011;3009;43.224;27.976;2022-11-15T07:35:21;10.83;;;6.00;;
5965;SDS011;3009;43.224;27.976;2022-11-15T07:37:53;8.50;;;5.80;;
5965;SDS011;3009;43.224;27.976;2022-11-15T07:40:22;6.40;;;5.00;;
5965;SDS011;3009;43.224;27.976;2022-11-15T07:42:52;6.53;;;5.03;;
5965;SDS011;3009;43.224;27.976;2022-11-15T07:45:20;6.80;;;5.40;;
5965;SDS011;3009;43.224;27.976;2022-11-15T07:47:49;5.57;;;4.90;;
5965;SDS011;3009;43.224;27.976;2022-11-15T07:50:17;8.70;;;6.10;;
5965;SDS011;3009;43.224;27.976;2022-11-15T07:52:45;9.40;;;5.90;;
5965;SDS011;3009;43.224;27.976;2022-11-15T07:55:14;11.03;;;5.53;;
5965;SDS011;3009;43.224;27.976;2022-11-15T07:57:42;12.60;;;5.97;;
5965;SDS011;3009;43.224;27.976;2022-11-15T08:00:12;8.73;;;5.50;;
5965;SDS011;3009;43.224;27.976;2022-11-15T08:02:41;8.47;;;5.17;;
5965;SDS011;3009;43.224;27.976;2022-11-15T08:05:10;5.97;;;4.73;;
5965;SDS011;3009;43.224;27.976;2022-11-15T08:07:38;10.93;;;5.20;;
5965;SDS011;3009;43.224;27.976;2022-11-15T08:10:07;9.00;;;4.80;;
5965;SDS011;3009;43.224;27.976;2022-11-15T08:12:35;8.33;;;5.80;;
5965;SDS011;3009;43.224;27.976;2022-11-15T08:15:04;6.70;;;5.10;;
5965;SDS011;3009;43.224;27.976;2022-11-15T08:17:34;9.00;;;5.80;;
5965;SDS011;3009;43.224;27.976;2022-11-15T08:20:03;6.37;;;4.90;;
5965;SDS011;3009;43.224;27.976;2022-11-15T08:22:32;14.00;;;5.40;;
5965;SDS011;3009;43.224;27.976;2022-11-15T08:25:01;6.77;;;5.10;;
5965;SDS011;3009;43.224;27.976;2022-11-15T08:27:29;5.77;;;5.13;;
5965;SDS011;3009;43.224;27.976;2022-11-15T08:29:57;7.30;;;4.70;;
5965;SDS011;3009;43.224;27.976;2022-11-15T08:32:25;6.77;;;5.43;;
5965;SDS011;3009;43.224;27.976;2022-11-15T08:34:54;8.50;;;5.33;;
5965;SDS011;3009;43.224;27.976;2022-11-15T08:37:22;4.53;;;4.13;;
5965;SDS011;3009;43.224;27.976;2022-11-15T08:39:51;4.67;;;4.27;;
5965;SDS011;3009;43.224;27.976;2022-11-15T08:42:19;8.33;;;4.73;;
5965;SDS011;3009;43.224;27.976;2022-11-15T08:44:47;9.43;;;5.07;;
5965;SDS011;3009;43.224;27.976;2022-11-15T08:47:15;11.17;;;7.10;;
5965;SDS011;3009;43.224;27.976;2022-11-15T08:49:43;8.40;;;6.20;;
5965;SDS011;3009;43.224;27.976;2022-11-15T08:52:13;9.00;;;5.97;;
5965;SDS011;3009;43.224;27.976;2022-11-15T08:54:41;6.00;;;4.50;;
5965;SDS011;3009;43.224;27.976;2022-11-15T08:57:09;9.03;;;6.63;;
5965;SDS011;3009;43.224;27.976;2022-11-15T08:59:37;6.10;;;4.77;;
5965;SDS011;3009;43.224;27.976;2022-11-15T09:02:06;6.90;;;5.37;;
5965;SDS011;3009;43.224;27.976;2022-11-15T09:04:34;7.27;;;4.53;;
5965;SDS011;3009;43.224;27.976;2022-11-15T09:07:02;10.30;;;5.23;;
5965;SDS011;3009;43.224;27.976;2022-11-15T09:09:31;6.13;;;4.60;;
5965;SDS011;3009;43.224;27.976;2022-11-15T09:11:59;7.83;;;5.80;;
5965;SDS011;3009;43.224;27.976;2022-11-15T09:14:28;14.00;;;9.00;;
5965;SDS011;3009;43.224;27.976;2022-11-15T09:16:57;19.30;;;10.63;;
5965;SDS011;3009;43.224;27.976;2022-11-15T09:19:25;16.37;;;10.57;;
5965;SDS011;3009;43.224;27.976;2022-11-15T09:21:53;16.93;;;9.93;;
5965;SDS011;3009;43.224;27.976;2022-11-15T09:24:21;17.67;;;10.87;;
5965;SDS011;3009;43.224;27.976;2022-11-15T09:26:51;14.07;;;9.13;;
5965;SDS011;3009;43.224;27.976;2022-11-15T09:29:37;11.73;;;8.70;;
5965;SDS011;3009;43.224;27.976;2022-11-15T09:32:05;13.10;;;8.00;;
5965;SDS011;3009;43.224;27.976;2022-11-15T09:34:33;16.63;;;8.33;;
5965;SDS011;3009;43.224;27.976;2022-11-15T09:37:01;15.23;;;9.67;;
5965;SDS011;3009;43.224;27.976;2022-11-15T09:39:29;12.87;;;8.50;;
5965;SDS011;3009;43.224;27.976;2022-11-15T09:42:03;24.90;;;11.23;;
5965;SDS011;3009;43.224;27.976;2022-11-15T09:44:56;15.13;;;9.30;;
5965;SDS011;3009;43.224;27.976;2022-11-15T09:47:38;15.87;;;8.53;;
5965;SDS011;3009;43.224;27.976;2022-11-15T09:50:19;17.13;;;11.77;;
5965;SDS011;3009;43.224;27.976;2022-11-15T09:52:56;12.47;;;8.37;;
5965;SDS011;3009;43.224;27.976;2022-11-15T09:55:27;13.87;;;7.40;;
5965;SDS011;3009;43.224;27.976;2022-11-15T09:58:07;20.73;;;11.30;;
5965;SDS011;3009;43.224;27.976;2022-11-15T10:00:45;14.20;;;8.40;;
5965;SDS011;3009;43.224;27.976;2022-11-15T10:03:22;10.53;;;6.90;;
5965;SDS011;3009;43.224;27.976;2022-11-15T10:05:55;10.40;;;7.30;;
5965;SDS011;3009;43.224;27.976;2022-11-15T10:08:31;11.60;;;6.43;;
5965;SDS011;3009;43.224;27.976;2022-11-15T10:11:19;16.90;;;8.10;;
5965;SDS011;3009;43.224;27.976;2022-11-15T10:14:10;9.13;;;6.50;;
5965;SDS011;3009;43.224;27.976;2022-11-15T10:19:35;10.40;;;7.03;;
5965;SDS011;3009;43.224;27.976;2022-11-15T10:22:14;5.13;;;4.63;;
5965;SDS011;3009;43.224;27.976;2022-11-15T10:24:49;9.53;;;6.63;;
5965;SDS011;3009;43.224;27.976;2022-11-15T10:27:27;16.37;;;7.63;;
5965;SDS011;3009;43.224;27.976;2022-11-15T10:29:58;14.40;;;8.23;;
5965;SDS011;3009;43.224;27.976;2022-11-15T10:32:26;12.97;;;7.73;;
5965;SDS011;3009;43.224;27.976;2022-11-15T10:34:55;17.97;;;7.40;;
5965;SDS011;3009;43.224;27.976;2022-11-15T10:37:27;16.53;;;7.17;;
5965;SDS011;3009;43.224;27.976;2022-11-15T10:40:02;16.67;;;7.40;;
5965;SDS011;3009;43.224;27.976;2022-11-15T10:42:31;4.93;;;4.13;;
5965;SDS011;3009;43.224;27.976;2022-11-15T10:45:01;5.80;;;4.20;;
5965;SDS011;3009;43.224;27.976;2022-11-15T10:47:30;9.23;;;4.50;;
5965;SDS011;3009;43.224;27.976;2022-11-15T10:50:06;9.93;;;5.73;;
5965;SDS011;3009;43.224;27.976;2022-11-15T10:52:52;14.00;;;5.70;;
5965;SDS011;3009;43.224;27.976;2022-11-15T10:55:24;11.77;;;6.50;;
5965;SDS011;3009;43.224;27.976;2022-11-15T10:57:56;21.27;;;7.53;;
5965;SDS011;3009;43.224;27.976;2022-11-15T11:00:32;14.50;;;7.23;;
5965;SDS011;3009;43.224;27.976;2022-11-15T11:03:03;10.33;;;7.17;;
5965;SDS011;3009;43.224;27.976;2022-11-15T11:05:34;17.00;;;8.67;;
5965;SDS011;3009;43.224;27.976;2022-11-15T11:08:19;27.57;;;14.40;;
5965;SDS011;3009;43.224;27.976;2022-11-15T11:10:52;12.77;;;8.70;;
5965;SDS011;3009;43.224;27.976;2022-11-15T11:13:29;16.40;;;9.97;;
5965;SDS011;3009;43.224;27.976;2022-11-15T11:16:05;14.73;;;8.43;;
5965;SDS011;3009;43.224;27.976;2022-11-15T11:18:47;9.50;;;7.07;;
5965;SDS011;3009;43.224;27.976;2022-11-15T11:21:25;15.40;;;7.20;;
5965;SDS011;3009;43.224;27.976;2022-11-15T11:24:11;11.23;;;7.90;;
5965;SDS011;3009;43.224;27.976;2022-11-15T11:26:49;7.10;;;6.40;;
5965;SDS011;3009;43.224;27.976;2022-11-15T11:29:33;8.50;;;6.70;;
5965;SDS011;3009;43.224;27.976;2022-11-15T11:32:33;9.27;;;6.40;;
5965;SDS011;3009;43.224;27.976;2022-11-15T11:35:09;12.10;;;6.00;;
5965;SDS011;3009;43.224;27.976;2022-11-15T11:37:43;8.20;;;5.80;;
5965;SDS011;3009;43.224;27.976;2022-11-15T11:40:19;14.00;;;5.80;;
5965;SDS011;3009;43.224;27.976;2022-11-15T11:42:56;9.40;;;5.47;;
5965;SDS011;3009;43.224;27.976;2022-11-15T11:48:40;6.77;;;6.07;;
5965;SDS011;3009;43.224;27.976;2022-11-15T11:51:14;6.60;;;5.57;;
5965;SDS011;3009;43.224;27.976;2022-11-15T11:53:50;10.33;;;5.10;;
5965;SDS011;3009;43.224;27.976;2022-11-15T11:56:24;5.57;;;5.07;;
5965;SDS011;3009;43.224;27.976;2022-11-15T11:58:57;6.20;;;5.60;;
5965;SDS011;3009;43.224;27.976;2022-11-15T12:01:34;6.13;;;4.33;;
5965;SDS011;3009;43.224;27.976;2022-11-15T12:04:09;7.53;;;5.40;;
5965;SDS011;3009;43.224;27.976;2022-11-15T12:06:42;5.93;;;4.77;;
5965;SDS011;3009;43.224;27.976;2022-11-15T12:09:17;6.03;;;5.20;;
5965;SDS011;3009;43.224;27.976;2022-11-15T12:11:53;8.53;;;6.60;;
5965;SDS011;3009;43.224;27.976;2022-11-15T12:14:31;11.83;;;6.03;;
5965;SDS011;3009;43.224;27.976;2022-11-15T12:17:01;8.37;;;5.57;;
5965;SDS011;3009;43.224;27.976;2022-11-15T12:19:31;22.93;;;6.00;;
5965;SDS011;3009;43.224;27.976;2022-11-15T12:22:02;7.57;;;5.40;;
5965;SDS011;3009;43.224;27.976;2022-11-15T12:24:34;12.30;;;5.87;;
5965;SDS011;3009;43.224;27.976;2022-11-15T12:27:11;9.40;;;6.23;;
5965;SDS011;3009;43.224;27.976;2022-11-15T12:29:52;7.60;;;6.23;;
5965;SDS011;3009;43.224;27.976;2022-11-15T12:32:25;5.63;;;5.10;;
5965;SDS011;3009;43.224;27.976;2022-11-15T12:34:57;6.63;;;5.57;;
5965;SDS011;3009;43.224;27.976;2022-11-15T12:40:26;5.53;;;5.03;;
5965;SDS011;3009;43.224;27.976;2022-11-15T12:46:10;7.83;;;4.93;;
5965;SDS011;3009;43.224;27.976;2022-11-15T12:48:46;6.40;;;4.60;;
5965;SDS011;3009;43.224;27.976;2022-11-15T12:57:52;5.83;;;4.63;;
5965;SDS011;3009;43.224;27.976;2022-11-15T13:03:25;6.30;;;3.97;;
5965;SDS011;3009;43.224;27.976;2022-11-15T13:06:03;5.03;;;4.27;;
5965;SDS011;3009;43.224;27.976;2022-11-15T13:08:38;4.70;;;4.10;;
5965;SDS011;3009;43.224;27.976;2022-11-15T13:17:34;4.40;;;3.57;;
5965;SDS011;3009;43.224;27.976;2022-11-15T13:20:17;10.73;;;6.07;;
5965;SDS011;3009;43.224;27.976;2022-11-15T13:22:48;5.20;;;4.70;;
5965;SDS011;3009;43.224;27.976;2022-11-15T13:25:35;4.50;;;4.10;;
5965;SDS011;3009;43.224;27.976;2022-11-15T13:28:32;4.73;;;4.30;;
5965;SDS011;3009;43.224;27.976;2022-11-15T13:31:03;3.87;;;3.57;;
5965;SDS011;3009;43.224;27.976;2022-11-15T13:33:43;4.60;;;4.20;;
5965;SDS011;3009;43.224;27.976;2022-11-15T13:36:13;4.73;;;4.23;;
5965;SDS011;3009;43.224;27.976;2022-11-15T13:38:43;4.07;;;3.67;;
5965;SDS011;3009;43.224;27.976;2022-11-15T13:41:13;8.50;;;6.30;;
5965;SDS011;3009;43.224;27.976;2022-11-15T13:43:46;8.37;;;6.53;;
5965;SDS011;3009;43.224;27.976;2022-11-15T13:46:15;6.37;;;5.47;;
5965;SDS011;3009;43.224;27.976;2022-11-15T13:48:47;11.30;;;6.10;;
5965;SDS011;3009;43.224;27.976;2022-11-15T13:51:22;6.87;;;4.67;;
5965;SDS011;3009;43.224;27.976;2022-11-15T13:54:09;13.10;;;9.43;;
5965;SDS011;3009;43.224;27.976;2022-11-15T13:56:55;9.97;;;8.23;;
5965;SDS011;3009;43.224;27.976;2022-11-15T13:59:27;9.83;;;7.23;;
5965;SDS011;3009;43.224;27.976;2022-11-15T14:01:58;9.47;;;6.33;;
5965;SDS011;3009;43.224;27.976;2022-11-15T14:04:30;6.00;;;5.10;;
5965;SDS011;3009;43.224;27.976;2022-11-15T14:07:00;6.70;;;5.53;;
5965;SDS011;3009;43.224;27.976;2022-11-15T14:09:37;10.40;;;7.23;;
5965;SDS011;3009;43.224;27.976;2022-11-15T14:15:18;11.60;;;5.80;;
5965;SDS011;3009;43.224;27.976;2022-11-15T14:17:54;21.20;;;12.90;;
5965;SDS011;3009;43.224;27.976;2022-11-15T14:20:27;13.57;;;5.90;;
5965;SDS011;3009;43.224;27.976;2022-11-15T14:23:00;11.23;;;6.60;;
5965;SDS011;3009;43.224;27.976;2022-11-15T14:25:30;20.03;;;14.60;;
5965;SDS011;3009;43.224;27.976;2022-11-15T14:28:09;25.07;;;17.27;;
5965;SDS011;3009;43.224;27.976;2022-11-15T14:30:40;27.80;;;18.63;;
5965;SDS011;3009;43.224;27.976;2022-11-15T14:35:58;21.37;;;12.97;;
5965;SDS011;3009;43.224;27.976;2022-11-15T14:38:31;16.73;;;11.10;;
5965;SDS011;3009;43.224;27.976;2022-11-15T14:41:01;16.67;;;10.80;;
5965;SDS011;3009;43.224;27.976;2022-11-15T14:43:29;19.40;;;11.90;;
5965;SDS011;3009;43.224;27.976;2022-11-15T14:45:58;10.43;;;8.03;;
5965;SDS011;3009;43.224;27.976;2022-11-15T14:48:26;8.10;;;5.70;;
5965;SDS011;3009;43.224;27.976;2022-11-15T14:50:55;10.70;;;6.67;;
5965;SDS011;3009;43.224;27.976;2022-11-15T14:53:25;11.90;;;9.40;;
5965;SDS011;3009;43.224;27.976;2022-11-15T14:55:53;10.70;;;7.43;;
5965;SDS011;3009;43.224;27.976;2022-11-15T14:58:21;14.03;;;7.60;;
5965;SDS011;3009;43.224;27.976;2022-11-15T15:00:49;13.03;;;8.83;;
5965;SDS011;3009;43.224;27.976;2022-11-15T15:03:18;16.90;;;9.93;;
5965;SDS011;3009;43.224;27.976;2022-11-15T15:05:46;24.73;;;10.83;;
5965;SDS011;3009;43.224;27.976;2022-11-15T15:08:16;16.07;;;10.43;;
5965;SDS011;3009;43.224;27.976;2022-11-15T15:10:44;21.07;;;10.40;;
5965;SDS011;3009;43.224;27.976;2022-11-15T15:13:15;19.00;;;10.93;;
5965;SDS011;3009;43.224;27.976;2022-11-15T15:15:46;15.03;;;9.03;;
5965;SDS011;3009;43.224;27.976;2022-11-15T15:18:15;15.20;;;11.23;;
5965;SDS011;3009;43.224;27.976;2022-11-15T15:20:47;19.17;;;11.83;;
5965;SDS011;3009;43.224;27.976;2022-11-15T15:23:23;17.60;;;11.13;;
5965;SDS011;3009;43.224;27.976;2022-11-15T15:25:53;15.47;;;10.93;;
5965;SDS011;3009;43.224;27.976;2022-11-15T15:28:21;12.83;;;9.53;;
5965;SDS011;3009;43.224;27.976;2022-11-15T15:30:49;20.73;;;9.70;;
5965;SDS011;3009;43.224;27.976;2022-11-15T15:33:19;13.30;;;10.60;;
5965;SDS011;3009;43.224;27.976;2022-11-15T15:35:47;23.63;;;13.90;;
5965;SDS011;3009;43.224;27.976;2022-11-15T15:38:15;16.23;;;11.77;;
5965;SDS011;3009;43.224;27.976;2022-11-15T15:40:45;16.00;;;11.37;;
5965;SDS011;3009;43.224;27.976;2022-11-15T15:43:16;15.93;;;12.37;;
5965;SDS011;3009;43.224;27.976;2022-11-15T15:45:45;14.70;;;9.87;;
5965;SDS011;3009;43.224;27.976;2022-11-15T15:48:14;13.10;;;8.67;;
5965;SDS011;3009;43.224;27.976;2022-11-15T15:50:43;14.03;;;8.90;;
5965;SDS011;3009;43.224;27.976;2022-11-15T15:53:12;18.20;;;8.87;;
5965;SDS011;3009;43.224;27.976;2022-11-15T15:55:40;12.00;;;9.53;;
5965;SDS011;3009;43.224;27.976;2022-11-15T15:58:10;13.80;;;8.00;;
5965;SDS011;3009;43.224;27.976;2022-11-15T16:00:38;13.10;;;7.97;;